NZQN/ZQN METAR and TAF weather

Enter ICAO airport designator
Station Type Date Time Source
NZQN METAR UTC NOAA

Error!


Station Type Date Time Source
NZQN Decoded METAR UTC NOAA

Error!

Station Type Date Time Source
NZQN TAF 2022/08/12 12:19 UTC NOAA

TAF NZQN 121119Z 1212/1306 04005KT 9999 SKC
BECMG 1300/1302 26010KT

Example: see airport list